^^
Station Historical Data
 
Daily Summary for June 18, 2024 Units:  English    Metric   Both
Daily Weekly Monthly Yearly Custom
  Current: High: Low: Average:
Temperature: 64.9 °F 83 °F 64.9 °F 72 °F
Dew Point: 35.1 °F 41.1 °F 35.1 °F 38.1 °F
Humidity: 33% 37.4% 19% 30%
Wind Speed: 3.1mph 6.9mph 0.3mph 3.2mph
Wind Gust: 7mph 12mph - -
WindNNW - - WSW
Pressure: 29.68 in 29.68 in 29.61 in -
Precipitation: 0.00 in      
Historical Graphs
 
 
Tabular Data for June 18, 2024
Time Temperature Dew Point Pressure Wind Wind Speed Wind Gust Humidity Rainfall Rate (Hourly) solar
00:09 83 °F 36.5 °F 29.61 in WNW 6.9 mph 12 mph 19% 0.00 in 0 W/m2
00:14 82.7 °F 36.9 °F 29.61 in WNW 4.7 mph 9 mph 19.5% 0.00 in 0 W/m2
00:19 82 °F 37.8 °F 29.61 in WNW 4.4 mph 5.1 mph 20.6% 0.00 in 0 W/m2
00:24 81.3 °F 36 °F 29.61 in WNW 3.7 mph 5 mph 19.8% 0.00 in 0 W/m2
00:29 80.6 °F 35.1 °F 29.61 in NW 4.5 mph 5.6 mph 19.4% 0.00 in 0 W/m2
00:34 80.5 °F 35.2 °F 29.62 in NW 3.6 mph 6 mph 19.6% 0.00 in 0 W/m2
00:39 79.8 °F 37 °F 29.62 in NW 2.4 mph 5 mph 21.5% 0.00 in 0 W/m2
00:44 79 °F 39.1 °F 29.62 in NNW 0.4 mph 3 mph 24% 0.00 in 0 W/m2
00:49 78 °F 39.5 °F 29.62 in NNW 0.3 mph 1.6 mph 25.2% 0.00 in 0 W/m2
00:54 76.8 °F 39.9 °F 29.62 in NW 1.1 mph 2 mph 26.6% 0.00 in 0 W/m2
00:59 75.7 °F 40.2 °F 29.62 in NW 0.6 mph 2 mph 27.8% 0.00 in 0 W/m2
01:04 74.6 °F 41.1 °F 29.62 in WNW 0.9 mph 1.3 mph 29.9% 0.00 in 0 W/m2
01:09 73.8 °F 40 °F 29.62 in NW 1.4 mph 2 mph 29.5% 0.00 in 0 W/m2
01:14 73.5 °F 38.4 °F 29.63 in WNW 1.9 mph 2 mph 28% 0.00 in 0 W/m2
01:19 73.6 °F 37.1 °F 29.63 in NNE 1.9 mph 2.7 mph 26.5% 0.00 in 0 W/m2
01:24 72.9 °F 39.4 °F 29.64 in East 2.8 mph 3.6 mph 29.8% 0.00 in 0 W/m2
01:29 72.4 °F 39.4 °F 29.64 in NNW 1.9 mph 4 mph 30.2% 0.00 in 0 W/m2
01:34 72.1 °F 40.1 °F 29.64 in NE 2.3 mph 2.9 mph 31.3% 0.00 in 0 W/m2
01:39 72 °F 39.2 °F 29.64 in SE 2.6 mph 5.4 mph 30.5% 0.00 in 0 W/m2
01:44 71.9 °F 38.1 °F 29.65 in East 3 mph 6 mph 29.2% 0.00 in 0 W/m2
01:49 71.6 °F 38.5 °F 29.65 in NNE 3.2 mph 4.5 mph 30% 0.00 in 0 W/m2
01:54 71.4 °F 39.4 °F 29.65 in North 3.4 mph 5 mph 31.3% 0.00 in 0 W/m2
01:59 71 °F 40.8 °F 29.65 in NNE 4.1 mph 6.3 mph 33.5% 0.00 in 0 W/m2
02:04 70 °F 41 °F 29.65 in NNE 3.9 mph 6.3 mph 34.9% 0.00 in 0 W/m2
02:09 69 °F 40.5 °F 29.65 in NNE 2.8 mph 5 mph 35.4% 0.00 in 0 W/m2
02:14 68.2 °F 41 °F 29.65 in North 2.7 mph 3.6 mph 37.1% 0.00 in 0 W/m2
02:19 67.7 °F 40.8 °F 29.65 in NNW 3.3 mph 4.5 mph 37.4% 0.00 in 0 W/m2
02:24 67.5 °F 39 °F 29.66 in NNW 3.5 mph 5 mph 35.3% 0.00 in 0 W/m2
02:29 67.5 °F 38.8 °F 29.66 in NNW 3.7 mph 5 mph 34.9% 0.00 in 0 W/m2
02:34 67.5 °F 38.1 °F 29.65 in NNW 4.6 mph 5.4 mph 33.9% 0.00 in 0 W/m2
02:39 67.6 °F 37.5 °F 29.65 in NNW 4.1 mph 6 mph 33% 0.00 in 0 W/m2
02:44 67.6 °F 37.5 °F 29.65 in North 3.7 mph 6 mph 33% 0.00 in 0 W/m2
02:49 67.3 °F 37.8 °F 29.66 in NNW 4.2 mph 8.5 mph 33.8% 0.00 in 0 W/m2
02:54 66.7 °F 37.4 °F 29.66 in North 4.9 mph 8.5 mph 33.9% 0.00 in 0 W/m2
02:59 66.6 °F 37.2 °F 29.66 in North 4.3 mph 8 mph 33.8% 0.00 in 0 W/m2
03:04 66.4 °F 36.4 °F 29.66 in NW 4.3 mph 6 mph 33% 0.00 in 0 W/m2
03:09 66.4 °F 36.2 °F 29.66 in North 4.4 mph 5.4 mph 32.8% 0.00 in 0 W/m2
03:14 66.3 °F 36.1 °F 29.66 in NNW 3.4 mph 6 mph 32.8% 0.00 in 0 W/m2
03:19 65.9 °F 35.6 °F 29.67 in NNE 3.6 mph 5 mph 32.4% 0.00 in 0 W/m2
03:24 65.7 °F 35.5 °F 29.68 in NNW 3.8 mph 5.1 mph 32.6% 0.00 in 0 W/m2
03:29 65.3 °F 35.5 °F 29.68 in NNW 4.6 mph 6.5 mph 33% 0.00 in 0 W/m2
03:34 64.9 °F 35.1 °F 29.68 in NNW 3.1 mph 7 mph 33% 0.00 in 0 W/m2
The Lakes at Centerra, Loveland, Colorado, USA
Compliments of Weather Underground - 2 mb